Terminal Aerodrome Forecast
Issued by NWS

Home | Current Version | Previous Version | Text Only | Print | Product List | Glossary On
Versions: 1 2 3 4 5 6 7 8 9 10 11 12 13 14 15 16 17 18 19 20 21 22 23
000
FTUS42 KJAX 240100 AAB
TAFCRG
TAF AMD
KCRG 240109Z 2401/2424 04012G23KT P6SM VCSH SCT030 BKN045
     FM240300 03012G20KT P6SM SCT025 BKN040
     FM240700 03013G20KT P6SM BKN015 OVC040
     FM241700 02015G25KT P6SM SCT015 BKN025=

USA.gov is the U.S. government's official web portal to all federal, state and local government web resources and services.